Back to Top

Language: 

My Weather Underground Personal Weather Station Historical Data with Graphs...

Delerius Weather Station Historical Data
Daily Summary for November 6, 2017 Units:  English    Metric   Both
« Previous Day
Next Day »
Daily Weekly Monthly Yearly Custom
  High: Low: Average:
Temperature: 51.6 °F 30.7 °F 41.6 °F
Dew Point: 43.8 °F 29.1 °F 37.5 °F
Humidity: 98 % 70 % 86 %
Wind Speed: 12.0 mph 0.0 mph 4 mph
Wind Gust: 21.0 mph - -
Wind:- - SW
Pressure: 30.24 in 30.06 in -
Precipitation: 0.00 in    
Historical Graphs
 
 
Tabular Data for November 6, 2017
Time Temperature Dew Point Pressure Wind Wind Speed Wind Gust Humidity Rainfall Rate (Hourly) solar Conditions
00:00 32.5 °F 30.2 °F 30.21 in WNW 1.0 mph 2.0 mph 91 % 0.00 in 0 W/m2
00:05 32.5 °F 30.2 °F 30.21 in WNW 2.0 mph 4.0 mph 91 % 0.00 in 0 W/m2
00:10 32.5 °F 30.5 °F 30.21 in WNW 2.0 mph 4.0 mph 92 % 0.00 in 0 W/m2
00:15 32.5 °F 30.5 °F 30.21 in Calm     92 % 0.00 in 0 W/m2
00:20 32.5 °F 30.5 °F 30.21 in Calm     92 % 0.00 in 0 W/m2
00:25 32.4 °F 30.3 °F 30.21 in Calm     92 % 0.00 in 0 W/m2
00:30 32.5 °F 30.5 °F 30.22 in Calm     92 % 0.00 in 0 W/m2
00:35 32.4 °F 30.3 °F 30.22 in Calm     92 % 0.00 in 0 W/m2
00:40 32.2 °F 30.1 °F 30.22 in Calm     92 % 0.00 in 0 W/m2
00:45 32.2 °F 30.1 °F 30.21 in Calm     92 % 0.00 in 0 W/m2
00:50 32.0 °F 29.9 °F 30.22 in Calm     92 % 0.00 in 0 W/m2
00:55 32.0 °F 29.9 °F 30.21 in WNW 1.0 mph 2.0 mph 92 % 0.00 in 0 W/m2
00:57 32.2 °F 30.1 °F 30.22 in WNW 1.0 mph 1.0 mph 92 % 0.00 in 0 W/m2
01:02 32.2 °F 30.4 °F 30.21 in Calm     93 % 0.00 in 0 W/m2
01:07 32.2 °F 30.4 °F 30.22 in Calm     93 % 0.00 in 0 W/m2
01:12 32.2 °F 30.4 °F 30.22 in Calm     93 % 0.00 in 0 W/m2
01:17 31.8 °F 29.8 °F 30.21 in Calm     92 % 0.00 in 0 W/m2
01:22 31.6 °F 29.6 °F 30.22 in Calm     92 % 0.00 in 0 W/m2
01:27 31.6 °F 29.6 °F 30.22 in Calm     92 % 0.00 in 0 W/m2
01:32 31.5 °F 29.4 °F 30.21 in Calm     92 % 0.00 in 0 W/m2
01:37 31.3 °F 29.2 °F 30.21 in WNW 1.0 mph 2.0 mph 92 % 0.00 in 0 W/m2
01:42 31.1 °F 29.3 °F 30.21 in WNW 1.0 mph 2.0 mph 93 % 0.00 in 0 W/m2
01:47 31.1 °F 29.3 °F 30.21 in Calm     93 % 0.00 in 0 W/m2
01:52 31.1 °F 29.3 °F 30.21 in WNW 1.0 mph 2.0 mph 93 % 0.00 in 0 W/m2
01:57 31.1 °F 29.3 °F 30.21 in WNW 1.0 mph 2.0 mph 93 % 0.00 in 0 W/m2
02:02 31.1 °F 29.3 °F 30.21 in Calm   1.0 mph 93 % 0.00 in 0 W/m2
02:07 31.3 °F 29.5 °F 30.21 in Calm     93 % 0.00 in 0 W/m2
02:12 31.3 °F 29.8 °F 30.21 in NW 1.0 mph 3.0 mph 94 % 0.00 in 0 W/m2
02:17 31.5 °F 29.9 °F 30.21 in Calm     94 % 0.00 in 0 W/m2
02:22 31.3 °F 29.8 °F 30.21 in Calm     94 % 0.00 in 0 W/m2
02:27 31.3 °F 29.8 °F 30.21 in Calm     94 % 0.00 in 0 W/m2
02:32 31.3 °F 29.8 °F 30.21 in Calm     94 % 0.00 in 0 W/m2
02:37 31.3 °F 29.8 °F 30.20 in Calm     94 % 0.00 in 0 W/m2
02:42 31.1 °F 29.3 °F 30.21 in Calm   2.0 mph 93 % 0.00 in 0 W/m2
02:47 30.9 °F 29.1 °F 30.21 in NNW 2.0 mph 2.0 mph 93 % 0.00 in 0 W/m2
02:52 30.9 °F 29.4 °F 30.20 in NNW 1.0 mph 2.0 mph 94 % 0.00 in 0 W/m2
02:57 30.9 °F 29.4 °F 30.20 in NNW 1.0 mph 2.0 mph 94 % 0.00 in 0 W/m2
03:02 30.7 °F 29.2 °F 30.21 in Calm     94 % 0.00 in 0 W/m2
03:07 30.7 °F 29.2 °F 30.21 in Calm   2.0 mph 94 % 0.00 in 0 W/m2
03:13 30.7 °F 29.2 °F 30.21 in Calm   1.0 mph 94 % 0.00 in 0 W/m2
03:19 30.7 °F 29.2 °F 30.21 in Calm     94 % 0.00 in 0 W/m2
03:20 30.7 °F 29.2 °F 30.20 in Calm     94 % 0.00 in 0 W/m2
03:21 30.7 °F 29.2 °F 30.20 in Calm     94 % 0.00 in 0 W/m2
03:23 30.7 °F 29.2 °F 30.20 in Calm     94 % 0.00 in 0 W/m2
03:26 30.7 °F 29.2 °F 30.20 in Calm     94 % 0.00 in 0 W/m2
03:28 30.7 °F 29.2 °F 30.21 in Calm     94 % 0.00 in 0 W/m2
03:31 30.7 °F 29.2 °F 30.21 in Calm     94 % 0.00 in 0 W/m2
03:36 30.7 °F 29.2 °F 30.21 in Calm   1.0 mph 94 % 0.00 in 0 W/m2
03:41 31.1 °F 29.8 °F 30.21 in Calm   2.0 mph 95 % 0.00 in 0 W/m2
03:46 31.5 °F 30.2 °F 30.21 in Calm     95 % 0.00 in 0 W/m2
03:51 31.5 °F 30.2 °F 30.21 in Calm     95 % 0.00 in 0 W/m2
03:56 31.6 °F 30.4 °F 30.21 in Calm     95 % 0.00 in 0 W/m2
04:01 31.5 °F 30.2 °F 30.21 in Calm     95 % 0.00 in 0 W/m2
04:06 31.6 °F 30.4 °F 30.21 in Calm     95 % 0.00 in 0 W/m2
04:11 31.6 °F 30.4 °F 30.21 in Calm     95 % 0.00 in 0 W/m2
04:16 31.6 °F 30.4 °F 30.21 in Calm     95 % 0.00 in 0 W/m2
04:21 31.5 °F 29.9 °F 30.21 in Calm     94 % 0.00 in 0 W/m2
04:26 31.5 °F 29.9 °F 30.21 in Calm     94 % 0.00 in 0 W/m2
04:31 31.3 °F 29.8 °F 30.21 in Calm     94 % 0.00 in 0 W/m2
04:36 31.3 °F 29.8 °F 30.21 in Calm     94 % 0.00 in 0 W/m2
04:41 31.1 °F 29.6 °F 30.21 in Calm     94 % 0.00 in 0 W/m2
04:46 31.1 °F 29.6 °F 30.21 in NNW 1.0 mph 2.0 mph 94 % 0.00 in 0 W/m2
04:51 30.9 °F 29.4 °F 30.21 in Calm   2.0 mph 94 % 0.00 in 0 W/m2
04:56 30.9 °F 29.7 °F 30.22 in Calm     95 % 0.00 in 0 W/m2
05:01 30.9 °F 29.7 °F 30.22 in Calm     95 % 0.00 in 0 W/m2
05:06 31.3 °F 30.0 °F 30.22 in Calm     95 % 0.00 in 0 W/m2
05:11 31.3 °F 30.0 °F 30.21 in Calm     95 % 0.00 in 0 W/m2
05:16 31.3 °F 30.0 °F 30.21 in Calm     95 % 0.00 in 0 W/m2
05:21 31.3 °F 30.0 °F 30.21 in Calm     95 % 0.00 in 0 W/m2
05:26 31.3 °F 30.0 °F 30.21 in Calm     95 % 0.00 in 0 W/m2
05:31 31.3 °F 30.0 °F 30.21 in Calm     95 % 0.00 in 0 W/m2
05:36 31.3 °F 30.0 °F 30.21 in Calm     95 % 0.00 in 0 W/m2
05:41 31.1 °F 29.8 °F 30.21 in Calm     95 % 0.00 in 0 W/m2
05:46 31.1 °F 29.8 °F 30.22 in NNW 2.0 mph 4.0 mph 95 % 0.00 in 0 W/m2
05:51 31.1 °F 29.8 °F 30.22 in Calm   1.0 mph 95 % 0.00 in 0 W/m2
05:56 31.1 °F 29.8 °F 30.22 in Calm     95 % 0.00 in 0 W/m2
06:02 30.9 °F 29.7 °F 30.22 in Calm     95 % 0.00 in 0 W/m2
06:07 30.9 °F 29.7 °F 30.22 in Calm     95 % 0.00 in 0 W/m2
06:12 30.9 °F 29.7 °F 30.22 in Calm     95 % 0.00 in 0 W/m2
06:17 30.9 °F 29.7 °F 30.22 in Calm     95 % 0.00 in 0 W/m2
06:22 31.1 °F 29.8 °F 30.22 in Calm     95 % 0.00 in 0 W/m2
06:27 31.3 °F 30.0 °F 30.22 in Calm     95 % 0.00 in 0 W/m2
06:32 31.3 °F 30.0 °F 30.22 in Calm     95 % 0.00 in 0 W/m2
06:37 31.3 °F 30.0 °F 30.22 in Calm     95 % 0.00 in 0 W/m2
06:42 31.1 °F 29.8 °F 30.22 in Calm     95 % 0.00 in 0 W/m2
06:47 30.9 °F 29.7 °F 30.22 in Calm     95 % 0.00 in 0 W/m2
06:52 30.9 °F 29.7 °F 30.22 in Calm     95 % 0.00 in 0 W/m2
06:57 30.9 °F 29.7 °F 30.22 in Calm     95 % 0.00 in 0 W/m2
07:02 30.9 °F 29.7 °F 30.22 in Calm     95 % 0.00 in 0 W/m2
07:07 30.7 °F 29.5 °F 30.22 in Calm     95 % 0.00 in 0 W/m2
07:12 31.1 °F 29.8 °F 30.22 in Calm     95 % 0.00 in 5 W/m2
07:17 31.6 °F 30.6 °F 30.22 in Calm     96 % 0.00 in 7 W/m2
07:22 31.8 °F 30.8 °F 30.22 in Calm     96 % 0.00 in 9 W/m2
07:27 31.6 °F 30.4 °F 30.22 in Calm     95 % 0.00 in 11 W/m2
07:32 31.5 °F 30.2 °F 30.22 in NNW 2.0 mph 3.0 mph 95 % 0.00 in 12 W/m2
07:37 31.3 °F 30.0 °F 30.23 in Calm     95 % 0.00 in 16 W/m2
07:42 31.3 °F 30.0 °F 30.23 in Calm     95 % 0.00 in 18 W/m2
07:47 31.3 °F 30.0 °F 30.23 in Calm     95 % 0.00 in 19 W/m2
07:52 31.3 °F 30.0 °F 30.23 in Calm     95 % 0.00 in 21 W/m2
07:57 31.3 °F 30.0 °F 30.23 in Calm     95 % 0.00 in 23 W/m2
08:02 31.5 °F 30.5 °F 30.23 in Calm     96 % 0.00 in 26 W/m2
08:07 31.5 °F 30.2 °F 30.23 in Calm     95 % 0.00 in 26 W/m2
08:12 31.6 °F 30.6 °F 30.23 in Calm     96 % 0.00 in 30 W/m2
08:17 32.0 °F 31.0 °F 30.23 in Calm     96 % 0.00 in 30 W/m2
08:22 32.4 °F 31.3 °F 30.23 in Calm     96 % 0.00 in 32 W/m2
08:28 32.9 °F 31.9 °F 30.23 in Calm     96 % 0.00 in 35 W/m2
08:33 33.1 °F 32.1 °F 30.24 in Calm     96 % 0.00 in 37 W/m2
08:38 33.4 °F 32.4 °F 30.23 in Calm     96 % 0.00 in 60 W/m2
08:43 34.2 °F 33.4 °F 30.23 in Calm     97 % 0.00 in 113 W/m2
08:48 34.9 °F 34.1 °F 30.23 in Calm     97 % 0.00 in 167 W/m2
08:53 35.4 °F 34.7 °F 30.23 in Calm     97 % 0.00 in 165 W/m2
08:58 36.0 °F 35.2 °F 30.23 in Calm     97 % 0.00 in 135 W/m2
09:03 36.1 °F 35.4 °F 30.23 in Calm     97 % 0.00 in 183 W/m2
09:08 36.9 °F 36.1 °F 30.23 in Calm     97 % 0.00 in 188 W/m2
09:13 38.3 °F 37.5 °F 30.23 in Calm     97 % 0.00 in 195 W/m2
09:18 39.4 °F 38.6 °F 30.23 in Calm     97 % 0.00 in 211 W/m2
09:23 39.9 °F 39.1 °F 30.23 in Calm     97 % 0.00 in 220 W/m2
09:28 40.8 °F 40.0 °F 30.23 in Calm   1.0 mph 97 % 0.00 in 227 W/m2
09:33 42.1 °F 41.6 °F 30.23 in Calm     98 % 0.00 in 236 W/m2
09:38 42.8 °F 42.0 °F 30.23 in Calm     97 % 0.00 in 241 W/m2
09:43 43.3 °F 42.5 °F 30.23 in Calm     97 % 0.00 in 248 W/m2
09:48 44.1 °F 43.3 °F 30.23 in Calm     97 % 0.00 in 255 W/m2
09:52 44.8 °F 43.7 °F 30.23 in Calm     96 % 0.00 in 262 W/m2
09:57 45.3 °F 43.7 °F 30.23 in Calm     94 % 0.00 in 272 W/m2
10:02 45.7 °F 43.8 °F 30.23 in Calm     93 % 0.00 in 279 W/m2
10:07 46.0 °F 43.6 °F 30.24 in Calm   1.0 mph 91 % 0.00 in 285 W/m2
10:12 46.2 °F 43.2 °F 30.23 in SW 3.0 mph 6.0 mph 89 % 0.00 in 292 W/m2
10:17 46.4 °F 42.7 °F 30.23 in SSW 2.0 mph 5.0 mph 87 % 0.00 in 299 W/m2
10:22 46.6 °F 42.6 °F 30.23 in SSW 4.0 mph 9.0 mph 86 % 0.00 in 308 W/m2
10:27 46.9 °F 42.4 °F 30.23 in SW 6.0 mph 9.0 mph 84 % 0.00 in 313 W/m2
10:33 47.5 °F 42.6 °F 30.23 in WSW 7.0 mph 11.0 mph 83 % 0.00 in 318 W/m2
10:38 48.0 °F 42.5 °F 30.23 in WSW 6.0 mph 9.0 mph 81 % 0.00 in 315 W/m2
10:43 48.4 °F 42.5 °F 30.23 in SW 5.0 mph 7.0 mph 80 % 0.00 in 327 W/m2
10:48 48.7 °F 42.5 °F 30.23 in WSW 6.0 mph 9.0 mph 79 % 0.00 in 338 W/m2
10:53 49.1 °F 42.5 °F 30.23 in SW 6.0 mph 10.0 mph 78 % 0.00 in 343 W/m2
10:58 49.3 °F 42.0 °F 30.23 in SW 7.0 mph 10.0 mph 76 % 0.00 in 346 W/m2
11:03 49.5 °F 41.9 °F 30.23 in SW 6.0 mph 9.0 mph 75 % 0.00 in 352 W/m2
11:08 49.6 °F 41.7 °F 30.23 in SSW 7.0 mph 10.0 mph 74 % 0.00 in 353 W/m2
11:13 49.8 °F 42.2 °F 30.22 in SW 5.0 mph 8.0 mph 75 % 0.00 in 357 W/m2
11:18 50.4 °F 42.4 °F 30.22 in SSW 5.0 mph 8.0 mph 74 % 0.00 in 360 W/m2
11:23 50.5 °F 42.2 °F 30.22 in SSW 6.0 mph 11.0 mph 73 % 0.00 in 362 W/m2
11:28 50.9 °F 42.2 °F 30.22 in SSW 6.0 mph 13.0 mph 72 % 0.00 in 364 W/m2
11:33 50.7 °F 41.7 °F 30.22 in SW 9.0 mph 12.0 mph 71 % 0.00 in 367 W/m2
11:38 50.9 °F 42.2 °F 30.22 in SSW 8.0 mph 11.0 mph 72 % 0.00 in 366 W/m2
11:43 50.9 °F 42.2 °F 30.22 in SW 8.0 mph 11.0 mph 72 % 0.00 in 364 W/m2
11:48 51.1 °F 42.4 °F 30.22 in SSW 8.0 mph 11.0 mph 72 % 0.00 in 364 W/m2
11:53 51.3 °F 42.5 °F 30.21 in SSW 6.0 mph 13.0 mph 72 % 0.00 in 360 W/m2
11:58 51.4 °F 42.7 °F 30.21 in SW 5.0 mph 7.0 mph 72 % 0.00 in 360 W/m2
12:03 51.4 °F 42.3 °F 30.21 in SW 8.0 mph 12.0 mph 71 % 0.00 in 357 W/m2
12:08 51.4 °F 42.3 °F 30.20 in SW 10.0 mph 15.0 mph 71 % 0.00 in 332 W/m2
12:13 51.4 °F 42.3 °F 30.20 in SSW 7.0 mph 10.0 mph 71 % 0.00 in 366 W/m2
12:18 51.6 °F 42.5 °F 30.20 in SW 7.0 mph 11.0 mph 71 % 0.00 in 359 W/m2
12:23 51.4 °F 42.0 °F 30.20 in SW 9.0 mph 13.0 mph 70 % 0.00 in 364 W/m2
12:28 51.4 °F 42.3 °F 30.20 in SSW 9.0 mph 14.0 mph 71 % 0.00 in 283 W/m2
12:33 51.4 °F 42.3 °F 30.20 in SSW 7.0 mph 11.0 mph 71 % 0.00 in 276 W/m2
12:38 51.3 °F 42.2 °F 30.19 in SSW 9.0 mph 13.0 mph 71 % 0.00 in 271 W/m2
12:43 51.1 °F 42.4 °F 30.19 in SSW 9.0 mph 14.0 mph 72 % 0.00 in 283 W/m2
12:48 51.1 °F 42.4 °F 30.19 in SW 8.0 mph 14.0 mph 72 % 0.00 in 299 W/m2
12:53 51.1 °F 42.4 °F 30.19 in SSW 9.0 mph 13.0 mph 72 % 0.00 in 294 W/m2
12:58 51.1 °F 42.4 °F 30.19 in SSW 7.0 mph 11.0 mph 72 % 0.00 in 265 W/m2
13:03 51.3 °F 42.5 °F 30.18 in SW 8.0 mph 10.0 mph 72 % 0.00 in 258 W/m2
13:08 51.3 °F 42.5 °F 30.18 in SW 9.0 mph 14.0 mph 72 % 0.00 in 279 W/m2
13:13 51.3 °F 42.5 °F 30.18 in SW 11.0 mph 16.0 mph 72 % 0.00 in 251 W/m2
13:18 51.3 °F 42.2 °F 30.18 in WSW 8.0 mph 12.0 mph 71 % 0.00 in 274 W/m2
13:23 51.3 °F 42.2 °F 30.18 in SW 10.0 mph 15.0 mph 71 % 0.00 in 206 W/m2
13:28 51.1 °F 42.0 °F 30.18 in SW 10.0 mph 15.0 mph 71 % 0.00 in 149 W/m2
13:33 50.7 °F 41.7 °F 30.18 in SSW 11.0 mph 16.0 mph 71 % 0.00 in 155 W/m2
13:38 50.5 °F 41.8 °F 30.18 in SW 9.0 mph 14.0 mph 72 % 0.00 in 162 W/m2
13:43 50.5 °F 41.8 °F 30.18 in SW 9.0 mph 14.0 mph 72 % 0.00 in 178 W/m2
13:48 50.5 °F 41.8 °F 30.18 in SW 9.0 mph 12.0 mph 72 % 0.00 in 181 W/m2
13:53 50.5 °F 41.8 °F 30.17 in SW 5.0 mph 7.0 mph 72 % 0.00 in 153 W/m2
13:58 50.5 °F 41.8 °F 30.17 in SSW 8.0 mph 14.0 mph 72 % 0.00 in 195 W/m2
14:04 50.7 °F 42.0 °F 30.17 in SW 6.0 mph 10.0 mph 72 % 0.00 in 181 W/m2
14:09 50.7 °F 42.0 °F 30.17 in SSW 9.0 mph 14.0 mph 72 % 0.00 in 178 W/m2
14:14 50.7 °F 41.7 °F 30.17 in SSW 9.0 mph 14.0 mph 71 % 0.00 in 227 W/m2
14:19 50.9 °F 41.8 °F 30.17 in SSW 7.0 mph 13.0 mph 71 % 0.00 in 213 W/m2
14:24 51.1 °F 42.0 °F 30.17 in SW 7.0 mph 9.0 mph 71 % 0.00 in 223 W/m2
14:29 51.3 °F 42.2 °F 30.17 in SW 6.0 mph 8.0 mph 71 % 0.00 in 192 W/m2
14:34 51.3 °F 42.2 °F 30.17 in SW 6.0 mph 9.0 mph 71 % 0.00 in 197 W/m2
14:39 51.4 °F 42.3 °F 30.17 in SSW 5.0 mph 8.0 mph 71 % 0.00 in 186 W/m2
14:44 51.4 °F 42.0 °F 30.17 in SW 7.0 mph 12.0 mph 70 % 0.00 in 176 W/m2
14:49 51.4 °F 42.0 °F 30.17 in SW 7.0 mph 9.0 mph 70 % 0.00 in 162 W/m2
14:54 51.4 °F 42.0 °F 30.16 in SW 5.0 mph 8.0 mph 70 % 0.00 in 148 W/m2
14:59 51.1 °F 42.0 °F 30.16 in SW 8.0 mph 11.0 mph 71 % 0.00 in 132 W/m2
15:04 50.7 °F 42.0 °F 30.16 in SW 6.0 mph 11.0 mph 72 % 0.00 in 125 W/m2
15:09 50.5 °F 42.2 °F 30.16 in SSW 5.0 mph 9.0 mph 73 % 0.00 in 46 W/m2
15:14 50.4 °F 42.4 °F 30.16 in SSW 7.0 mph 9.0 mph 74 % 0.00 in 37 W/m2
15:19 50.4 °F 42.4 °F 30.16 in SSW 7.0 mph 13.0 mph 74 % 0.00 in 32 W/m2
15:24 50.0 °F 42.4 °F 30.15 in South 6.0 mph 12.0 mph 75 % 0.00 in 28 W/m2
15:29 49.8 °F 42.2 °F 30.15 in SSW 9.0 mph 12.0 mph 75 % 0.00 in 28 W/m2
15:34 49.6 °F 42.4 °F 30.15 in South 7.0 mph 11.0 mph 76 % 0.00 in 26 W/m2
15:39 49.5 °F 42.2 °F 30.15 in South 7.0 mph 11.0 mph 76 % 0.00 in 23 W/m2
15:44 49.3 °F 42.4 °F 30.15 in SSW 6.0 mph 10.0 mph 77 % 0.00 in 19 W/m2
15:49 49.3 °F 42.7 °F 30.16 in SSW 7.0 mph 10.0 mph 78 % 0.00 in 18 W/m2
15:54 48.9 °F 42.4 °F 30.15 in SSW 6.0 mph 8.0 mph 78 % 0.00 in 16 W/m2
15:59 48.7 °F 42.2 °F 30.16 in SSW 5.0 mph 9.0 mph 78 % 0.00 in 14 W/m2
16:04 48.6 °F 42.3 °F 30.16 in SSW 7.0 mph 10.0 mph 79 % 0.00 in 14 W/m2
16:09 48.4 °F 42.2 °F 30.15 in SSW 3.0 mph 7.0 mph 79 % 0.00 in 11 W/m2
16:14 48.2 °F 42.3 °F 30.16 in SSW 2.0 mph 6.0 mph 80 % 0.00 in 7 W/m2
16:19 48.0 °F 42.1 °F 30.16 in SW 4.0 mph 8.0 mph 80 % 0.00 in 0 W/m2
16:24 47.8 °F 42.3 °F 30.15 in West 4.0 mph 7.0 mph 81 % 0.00 in 0 W/m2
16:29 47.7 °F 42.1 °F 30.15 in WSW 3.0 mph 9.0 mph 81 % 0.00 in 0 W/m2
16:34 47.5 °F 41.9 °F 30.15 in SW 2.0 mph 5.0 mph 81 % 0.00 in 0 W/m2
16:39 47.3 °F 42.1 °F 30.15 in WSW 4.0 mph 7.0 mph 82 % 0.00 in 0 W/m2
16:44 47.1 °F 41.9 °F 30.15 in SW 5.0 mph 9.0 mph 82 % 0.00 in 0 W/m2
16:49 47.1 °F 41.9 °F 30.15 in SSW 4.0 mph 9.0 mph 82 % 0.00 in 0 W/m2
16:54 47.1 °F 42.2 °F 30.15 in SSW 5.0 mph 11.0 mph 83 % 0.00 in 0 W/m2
16:57 47.1 °F 42.2 °F 30.15 in SSW 5.0 mph 10.0 mph 83 % 0.00 in 0 W/m2
17:02 47.1 °F 42.2 °F 30.15 in SSW 5.0 mph 12.0 mph 83 % 0.00 in 0 W/m2
17:07 47.1 °F 42.2 °F 30.15 in SW 6.0 mph 9.0 mph 83 % 0.00 in 0 W/m2
17:12 47.1 °F 42.2 °F 30.15 in SW 3.0 mph 7.0 mph 83 % 0.00 in 0 W/m2
17:17 46.9 °F 42.0 °F 30.15 in South 4.0 mph 9.0 mph 83 % 0.00 in 0 W/m2
17:22 46.9 °F 42.0 °F 30.15 in SSW 4.0 mph 7.0 mph 83 % 0.00 in 0 W/m2
17:27 46.9 °F 42.0 °F 30.15 in WSW 3.0 mph 6.0 mph 83 % 0.00 in 0 W/m2
17:32 46.9 °F 42.0 °F 30.14 in WSW 1.0 mph 4.0 mph 83 % 0.00 in 0 W/m2
17:38 46.8 °F 41.9 °F 30.14 in WSW 2.0 mph 6.0 mph 83 % 0.00 in 0 W/m2
17:43 46.8 °F 41.9 °F 30.14 in SW 5.0 mph 7.0 mph 83 % 0.00 in 0 W/m2
17:48 46.6 °F 42.0 °F 30.14 in Calm     84 % 0.00 in 0 W/m2
17:53 46.6 °F 42.0 °F 30.14 in SSW 1.0 mph 5.0 mph 84 % 0.00 in 0 W/m2
17:58 46.6 °F 42.0 °F 30.14 in SW 4.0 mph 6.0 mph 84 % 0.00 in 0 W/m2
18:03 46.6 °F 42.0 °F 30.14 in SSW 6.0 mph 8.0 mph 84 % 0.00 in 0 W/m2
18:08 46.6 °F 42.0 °F 30.14 in SW 5.0 mph 10.0 mph 84 % 0.00 in 0 W/m2
18:13 46.6 °F 42.0 °F 30.13 in SSW 6.0 mph 10.0 mph 84 % 0.00 in 0 W/m2
18:18 46.6 °F 42.0 °F 30.13 in SSW 7.0 mph 11.0 mph 84 % 0.00 in 0 W/m2
18:24 46.8 °F 42.2 °F 30.13 in SSW 9.0 mph 13.0 mph 84 % 0.00 in 0 W/m2
18:32 46.8 °F 42.2 °F 30.13 in SSW 8.0 mph 15.0 mph 84 % 0.00 in 0 W/m2
18:37 46.6 °F 42.0 °F 30.13 in SSW 7.0 mph 12.0 mph 84 % 0.00 in 0 W/m2
18:42 46.6 °F 42.3 °F 30.13 in SSW 8.0 mph 15.0 mph 85 % 0.00 in 0 W/m2
18:43 46.6 °F 42.3 °F 30.13 in SSW 6.0 mph 10.0 mph 85 % 0.00 in 0 W/m2
18:48 46.4 °F 42.1 °F 30.12 in SSW 7.0 mph 10.0 mph 85 % 0.00 in 0 W/m2
18:53 46.2 °F 42.0 °F 30.12 in South 8.0 mph 12.0 mph 85 % 0.00 in 0 W/m2
18:58 46.0 °F 41.8 °F 30.12 in South 6.0 mph 10.0 mph 85 % 0.00 in 0 W/m2
19:03 46.0 °F 41.8 °F 30.12 in South 3.0 mph 6.0 mph 85 % 0.00 in 0 W/m2
19:13 46.0 °F 42.1 °F 30.12 in SSW 5.0 mph 10.0 mph 86 % 0.00 in 0 W/m2
19:18 46.0 °F 42.1 °F 30.12 in SSW 5.0 mph 9.0 mph 86 % 0.00 in 0 W/m2
19:23 45.9 °F 41.9 °F 30.12 in SSW 6.0 mph 10.0 mph 86 % 0.00 in 0 W/m2
19:28 46.0 °F 42.4 °F 30.12 in SSW 6.0 mph 11.0 mph 87 % 0.00 in 0 W/m2
19:33 46.0 °F 42.4 °F 30.11 in SSW 8.0 mph 14.0 mph 87 % 0.00 in 0 W/m2
19:38 46.0 °F 42.4 °F 30.11 in SSW 7.0 mph 11.0 mph 87 % 0.00 in 0 W/m2
19:43 46.0 °F 42.4 °F 30.11 in SW 8.0 mph 12.0 mph 87 % 0.00 in 0 W/m2
19:48 46.0 °F 42.4 °F 30.11 in SSW 8.0 mph 13.0 mph 87 % 0.00 in 0 W/m2
19:53 46.0 °F 42.4 °F 30.11 in SSW 9.0 mph 15.0 mph 87 % 0.00 in 0 W/m2
19:58 46.0 °F 42.4 °F 30.11 in SSW 8.0 mph 13.0 mph 87 % 0.00 in 0 W/m2
20:03 46.0 °F 42.4 °F 30.11 in SSW 8.0 mph 13.0 mph 87 % 0.00 in 0 W/m2
20:08 46.2 °F 42.6 °F 30.11 in SSW 7.0 mph 12.0 mph 87 % 0.00 in 0 W/m2
20:13 46.2 °F 42.6 °F 30.11 in SSW 10.0 mph 21.0 mph 87 % 0.00 in 0 W/m2
20:18 46.4 °F 42.7 °F 30.10 in SSW 10.0 mph 16.0 mph 87 % 0.00 in 0 W/m2
20:28 46.6 °F 42.9 °F 30.10 in SW 8.0 mph 12.0 mph 87 % 0.00 in 0 W/m2
20:33 46.6 °F 42.6 °F 30.10 in SSW 10.0 mph 14.0 mph 86 % 0.00 in 0 W/m2
20:38 46.8 °F 42.8 °F 30.10 in SSW 10.0 mph 14.0 mph 86 % 0.00 in 0 W/m2
20:43 46.8 °F 42.8 °F 30.10 in SSW 10.0 mph 15.0 mph 86 % 0.00 in 0 W/m2
20:49 46.8 °F 42.5 °F 30.09 in SW 10.0 mph 16.0 mph 85 % 0.00 in 0 W/m2
20:54 46.8 °F 42.5 °F 30.09 in SSW 12.0 mph 18.0 mph 85 % 0.00 in 0 W/m2
20:59 46.9 °F 42.7 °F 30.09 in SSW 11.0 mph 21.0 mph 85 % 0.00 in 0 W/m2
21:04 46.9 °F 42.4 °F 30.09 in SSW 11.0 mph 19.0 mph 84 % 0.00 in 0 W/m2
21:09 46.9 °F 42.4 °F 30.09 in SSW 10.0 mph 14.0 mph 84 % 0.00 in 0 W/m2
21:14 47.1 °F 42.5 °F 30.09 in SSW 11.0 mph 18.0 mph 84 % 0.00 in 0 W/m2
21:19 47.1 °F 42.5 °F 30.09 in SSW 12.0 mph 19.0 mph 84 % 0.00 in 0 W/m2
21:24 47.3 °F 42.4 °F 30.09 in SSW 9.0 mph 16.0 mph 83 % 0.00 in 0 W/m2
21:29 47.5 °F 42.6 °F 30.09 in SSW 11.0 mph 14.0 mph 83 % 0.00 in 0 W/m2
21:34 47.3 °F 42.1 °F 30.09 in SW 9.0 mph 13.0 mph 82 % 0.00 in 0 W/m2
21:39 47.5 °F 42.6 °F 30.09 in SSW 9.0 mph 14.0 mph 83 % 0.00 in 0 W/m2
21:44 47.5 °F 42.3 °F 30.09 in SSW 7.0 mph 11.0 mph 82 % 0.00 in 0 W/m2
21:49 47.5 °F 42.3 °F 30.09 in SSW 7.0 mph 12.0 mph 82 % 0.00 in 0 W/m2
21:54 47.5 °F 42.3 °F 30.09 in SSW 6.0 mph 9.0 mph 82 % 0.00 in 0 W/m2
21:59 47.7 °F 42.4 °F 30.09 in South 7.0 mph 13.0 mph 82 % 0.00 in 0 W/m2
22:04 47.7 °F 42.4 °F 30.09 in SSW 4.0 mph 9.0 mph 82 % 0.00 in 0 W/m2
22:09 47.7 °F 42.4 °F 30.08 in South 3.0 mph 7.0 mph 82 % 0.00 in 0 W/m2
22:14 47.5 °F 42.3 °F 30.08 in South 6.0 mph 10.0 mph 82 % 0.00 in 0 W/m2
22:19 47.5 °F 42.3 °F 30.08 in South 6.0 mph 15.0 mph 82 % 0.00 in 0 W/m2
22:24 47.5 °F 42.3 °F 30.08 in SSE 9.0 mph 13.0 mph 82 % 0.00 in 0 W/m2
22:30 47.7 °F 42.4 °F 30.08 in SSE 7.0 mph 10.0 mph 82 % 0.00 in 0 W/m2
22:35 47.7 °F 42.4 °F 30.08 in South 8.0 mph 12.0 mph 82 % 0.00 in 0 W/m2
22:40 47.7 °F 42.4 °F 30.08 in South 9.0 mph 15.0 mph 82 % 0.00 in 0 W/m2
22:45 47.7 °F 42.4 °F 30.08 in South 11.0 mph 19.0 mph 82 % 0.00 in 0 W/m2
22:50 47.8 °F 42.6 °F 30.07 in SSW 10.0 mph 15.0 mph 82 % 0.00 in 0 W/m2
22:55 47.8 °F 42.6 °F 30.07 in South 8.0 mph 13.0 mph 82 % 0.00 in 0 W/m2
23:00 47.8 °F 42.6 °F 30.07 in SSW 9.0 mph 15.0 mph 82 % 0.00 in 0 W/m2
23:02 47.8 °F 42.6 °F 30.07 in South 10.0 mph 14.0 mph 82 % 0.00 in 0 W/m2
23:07 47.8 °F 42.9 °F 30.07 in South 9.0 mph 16.0 mph 83 % 0.00 in 0 W/m2
23:12 47.8 °F 42.9 °F 30.07 in South 10.0 mph 16.0 mph 83 % 0.00 in 0 W/m2
23:17 47.8 °F 42.9 °F 30.06 in South 7.0 mph 11.0 mph 83 % 0.00 in 0 W/m2
23:22 47.7 °F 42.8 °F 30.07 in South 6.0 mph 10.0 mph 83 % 0.00 in 0 W/m2
23:27 47.5 °F 42.6 °F 30.07 in SSE 6.0 mph 11.0 mph 83 % 0.00 in 0 W/m2
23:32 47.3 °F 42.4 °F 30.07 in South 7.0 mph 11.0 mph 83 % 0.00 in 0 W/m2
23:37 47.1 °F 42.5 °F 30.07 in SSE 4.0 mph 8.0 mph 84 % 0.00 in 0 W/m2
23:42 46.9 °F 42.4 °F 30.06 in SSE 6.0 mph 9.0 mph 84 % 0.00 in 0 W/m2
23:47 46.8 °F 42.2 °F 30.06 in SE 7.0 mph 12.0 mph 84 % 0.00 in 0 W/m2
23:52 46.6 °F 42.3 °F 30.06 in SE 7.0 mph 9.0 mph 85 % 0.00 in 0 W/m2
23:57 46.4 °F 42.1 °F 30.06 in SE 8.0 mph 11.0 mph 85 % 0.00 in 0 W/m2
Delerius-Weather
Compliments of Weather Underground - 2.25 mb

Data updates at regular intervals.